Bavaria

Jump to table bottom
Date/Time Temp deg F RH % Wind MPH Wind Max Wind Dir Snow 24hr inches Snow Depth inches
03/28/17 17:00 27.9 56 9 14 SW - 203 -0.0 72.1
03/28/17 16:00 27.5 60 6 12 W - 248 -0.2 145.3
03/28/17 15:00 26.1 63 6 10 SW - 219 -0.2 72.4
03/28/17 14:00 29.4 51 6 12 W - 249 1.8 145.3
03/28/17 13:00 25.3 62 4 8 W - 256 2.4 145.3
03/28/17 12:00 24.3 62 4 7 SW - 243 3.1 145.3
03/28/17 11:00 20.0 73 3 8 W - 260 3.5 145.3
03/28/17 10:00 18.0 76 2 4 W - 266 3.7 145.3
03/28/17 09:00 14.2 84 2 5 N - 12 3.7 -16.9
03/28/17 08:00 15.9 81 2 8 N - 9 3.7 -16.8
03/28/17 07:00 14.5 88 3 8 E - 96 3.9 -17.0
03/28/17 06:00 14.5 88 3 7 E - 89 4.0 -16.8
03/28/17 05:00 14.9 86 4 11 E - 95 4.0 -17.1
03/28/17 04:00 15.2 88 4 9 SW - 217 4.0 -17.0
03/28/17 03:00 16.9 89 2 8 NE - 65 4.0 -17.7
03/28/17 02:00 18.9 89 2 5 S - 186 4.1 -18.3
03/28/17 01:00 19.3 90 2 5 NE - 55 4.1 -18.3
03/28/17 00:00 19.5 90 2 6 E - 68 4.2 -18.3
03/27/17 23:00 19.8 90 2 6 NW - 308 3.7 -18.6
03/27/17 22:00 21.1 91 5 13 S - 158 3.4 72.5
03/27/17 21:00 21.8 90 7 21 SE - 113 1.4 71.9
03/27/17 20:00 23.0 92 5 10 N - 22 0.1 71.5
03/27/17 19:00 24.4 88 4 11 SW - 217 0.1 71.1
03/27/17 18:00 26.6 69 7 12 SE - 145 0.1 71.4
03/27/17 17:00 25.6 76 10 14 W - 260 0.1 71.0
03/27/17 16:00 25.3 79 8 11 NW - 302 0.0 145.3
03/27/17 15:00 26.2 81 5 10 W - 268 -0.0 145.3
03/27/17 14:00 26.8 75 5 8 W - 273 0.7 145.3
03/27/17 13:00 25.6 75 4 7 W - 264 0.7 145.3
03/27/17 12:00 25.6 70 5 10 W - 252 0.9 70.5
03/27/17 11:00 25.3 72 5 9 W - 280 0.8 145.3
03/27/17 10:00 29.7 73 4 7 S - 193 0.8 145.3
03/27/17 09:00 24.3 85 4 7 S - 197 0.5 -18.5
03/27/17 08:00 22.9 78 7 11 W - 270 0.8 -18.4
03/27/17 07:00 21.1 88 8 12 W - 248 1.0 -18.8
03/27/17 06:00 21.5 89 9 13 W - 251 0.9 71.9
03/27/17 05:00 21.5 91 9 13 W - 249 0.8 -18.9
03/27/17 04:00 21.4 91 7 12 SW - 239 0.8 -19.1
03/27/17 03:00 21.4 91 8 13 SW - 221 0.7 -19.1
03/27/17 02:00 22.0 91 9 15 S - 170 0.6 -19.1
03/27/17 01:00 21.9 91 9 17 W - 261 0.2 -19.1
03/27/17 00:00 21.8 91 9 15 W - 251 0.2 -18.8
.